Terminal Aerodrome Forecast
Issued by NWS Binghamton, NY

Home | Current Version | Previous Version | Text Only | Print | Product List | Glossary On
Versions: 1 2 3 4 5 6 7 8 9 10 11 12 13 14 15 16 17 18
724
FTUS41 KBGM 061737 AAA
TAFSYR
TAF AMD
KSYR 061737Z 0618/0718 10008KT P6SM SCT060 OVC120
     FM070100 10008KT P6SM OVC035
     FM070300 11008KT 3SM -RA BR OVC012
     FM070900 15008KT P6SM -SHRA OVC015
     FM071400 24012KT P6SM OVC025=

USA.gov is the U.S. government's official web portal to all federal, state and local government web resources and services.